Nearby METAR Reports

Sorted by Distance from Carson Valley Weather Station - Minden, Nevada

 

KMEV - Minden, Nevada, USA
Distance from station: SSW 3mi, 5km
Updated: Sun, 27-Sep-2020 7:15pm PDT
Clear
Clear
 Wind from NNE
Wind: NNE 6 mph , 9 km/h
Temperature: 66°F , 19°C
Dew Point: 25°F , -4°C
Humidity: 21%
Barometer: 30.29 inHg , 1025.7 hPa
Clouds: Clear
Visibility: 10 miles , 16 km
2020/09/28 02:15 KMEV 280215Z AUTO 03005KT 10SM CLR 19/M04 A3029 RMK AO2
KCXP - Carson City, Nevada, USA
Distance from station: N 10mi, 16km
Updated: Sun, 27-Sep-2020 7:10pm PDT
Clear
Clear
 Wind from ENE
Wind: ENE 7 mph , 11 km/h
Temperature: 68°F , 20°C
Dew Point: 25°F , -4°C
Humidity: 20%
Barometer: 30.30 inHg , 1026.1 hPa
Clouds: Clear
Visibility: 10 miles , 16 km
2020/09/28 02:10 KCXP 280210Z AUTO 06006KT 10SM CLR 20/M04 A3030 RMK AO2
 
KTVL - South Lake Tahoe, California, USA
Distance from station: WSW 18mi, 29km
Updated: Sun, 27-Sep-2020 6:53pm PDT
Clear
Clear
 Wind from calm
Wind: Calm
Temperature: 61°F , 16°C
Dew Point: 30°F , -1°C
Humidity: 31%
Barometer: 30.33 inHg , 1027.1 hPa
Clouds: Clear
Visibility: 10 miles , 16 km
2020/09/28 01:53 KTVL 280153Z AUTO 00000KT 10SM CLR 16/M01 A3033 RMK AO2 SLP237 T01561006
KTRK - Truckee Tahoe, California, USA
Distance from station: NW 29mi, 46km
Updated: Sun, 27-Sep-2020 6:55pm PDT
Clear
Clear
 Wind from S
Wind: S 3 mph , 6 km/h
Temperature: 63°F , 17°C
Dew Point: 30°F , -1°C
Humidity: 30%
Barometer: 30.32 inHg , 1026.8 hPa
Clouds: Clear
Visibility: 10 miles , 16 km
2020/09/28 01:55 KTRK 280155Z AUTO 17003KT 10SM CLR 17/M01 A3032 RMK AO2
 
KRNO - Reno, Nevada, USA
Distance from station: N 32mi, 51km
Updated: Sun, 27-Sep-2020 6:55pm PDT
Clear
Clear
 Wind from ENE
Wind: ENE 7 mph , 11 km/h
Temperature: 72°F , 22°C
Dew Point: 28°F , -2°C
Humidity: 20%
Barometer: 30.27 inHg , 1025.1 hPa
Clouds: Clear
Visibility: 10 miles , 16 km
2020/09/28 01:55 KRNO 280155Z 06006KT 10SM CLR 22/M02 A3027 RMK AO2 SLP217 T02171017
KRTS - Reno/Stead, Nevada, USA
Distance from station: NNW 44mi, 71km
Updated: Sun, 27-Sep-2020 7:15pm PDT
Clear
Clear
 Wind from NE
Wind: NE 10 mph , 17 km/h
Temperature: 64°F , 18°C
Dew Point: 25°F , -4°C
Humidity: 22%
Barometer: 30.32 inHg , 1026.8 hPa
Clouds: Clear
Visibility: 10 miles , 16 km
2020/09/28 02:15 KRTS 280215Z AUTO 05009KT 10SM CLR 18/M04 A3032 RMK AO2
 
KBAN - Bridgeport(Mcmwt, California, USA
Distance from station: SSE 49mi, 79km
Updated: Sun, 27-Sep-2020 6:52pm PDT
Clear
Clear
 Wind from W
Wind: W 6 mph , 9 km/h
Temperature: 59°F , 15°C
Dew Point: 30°F , -1°C
Humidity: 34%
Barometer: 30.35 inHg , 1027.8 hPa
Clouds: Clear
Visibility: 8 miles , 13 km
2020/09/28 01:52 KBAN 280152Z AUTO 27005KT 8SM CLR 15/M01 A3035 RMK AO2 SLP239 T01501006 $
KBLU - Emigrant Gap, California, USA
Distance from station: WNW 55mi, 89km
Updated: Sun, 27-Sep-2020 6:52pm PDT

 
Temperature: 70°F , 21°C
Dew Point: 30°F , -1°C
Humidity: 23%
Barometer: 30.21 inHg , 1023 hPa
Visibility: 10 miles , 16 km
2020/09/28 01:52 KBLU 280152Z AUTO 10SM 21/M01 A3021 RMK AO2 SLP145 T02111006 $
 
KPVF - Placerville, California, USA
Distance from station: WSW 60mi, 96km
Updated: Sun, 27-Sep-2020 5:55pm PDT
NOT Current
Clear
Clear
 Wind from calm
Wind: Calm
Temperature: 82°F , 28°C
Dew Point: 48°F , 9°C
Humidity: 30%
Barometer: 30.00 inHg , 1015.9 hPa
Clouds: Clear
Visibility: 10 miles , 16 km
2020/09/28 00:55 KPVF 280055Z AUTO 00000KT 10SM CLR 28/09 A3000 RMK AO1
KNFL - Fallon Nas, Nevada, USA
Distance from station: ENE 61mi, 97km
Updated: Sun, 27-Sep-2020 6:56pm PDT
Clear
Clear
 Wind from N
Wind: N 7 mph , 11 km/h
Temperature: 68°F , 20°C
Dew Point: 28°F , -2°C
Humidity: 23%
Barometer: 30.24 inHg , 1024 hPa
Clouds: Clear
Visibility: 10 miles , 16 km
2020/09/28 01:56 KNFL 280156Z AUTO 35006KT 10SM CLR 20/M02 A3024 RMK AO2 SLP203 T02001017
 
KHTH - Hawthorne, Nevada, USA
Distance from station: ESE 68mi, 109km
Updated: Sun, 27-Sep-2020 7:15pm PDT
Clear
Clear
 Wind from NW
Wind: NW 9 mph , 15 km/h
Temperature: 70°F , 21°C
Dew Point: 32°F , 0°C
Humidity: 25%
Barometer: 30.26 inHg , 1024.7 hPa
Clouds: Clear
Visibility: 10 miles , 16 km
2020/09/28 02:15 KHTH 280215Z AUTO 31008KT 10SM CLR 21/00 A3026 RMK A01
KGOO - Grass Valley, California, USA
Distance from station: W 70mi, 112km
Updated: Sun, 27-Sep-2020 7:15pm PDT
Clear
Clear
 Wind from E
Wind: E 13 mph , 20 km/h, Gust: 22 mph , 35 km/h
Temperature: 81°F , 27°C
Dew Point: 30°F , -1°C
Humidity: 16%
Barometer: 30.03 inHg , 1016.9 hPa
Clouds: Clear
Visibility: 10 miles , 16 km
2020/09/28 02:15 KGOO 280215Z AUTO 08011G19KT 10SM CLR 27/M01 A3003 RMK A01
 
KAUN - Auburn Muni, California, USA
Distance from station: W 73mi, 118km
Updated: Sun, 27-Sep-2020 6:55pm PDT
Clear
Clear
 
Temperature: 77°F , 25°C
Dew Point: 41°F , 5°C
Humidity: 28%
Barometer: 29.92 inHg , 1013.2 hPa
Clouds: Clear
Visibility: 9 miles , 14 km
2020/09/28 01:55 KAUN 280155Z AUTO 9SM CLR 25/05 A2992 RMK A01
KO22 - Columbia, California, USA
Distance from station: SSW 79mi, 127km
Updated: Mon, 07-Sep-2020 10:55pm PDT
NOT Current
Overcast
Overcast
 Wind from calm
Wind: Calm
Temperature: 73°F , 23°C
Dew Point: 48°F , 9°C
Humidity: 41%
Barometer: 29.79 inHg , 1008.8 hPa
Clouds: Overcast
Visibility: 10 miles , 16 km
Cloud details: Partly cloudy 6500 ft
Overcast 8500 ft
2020/09/08 05:55 KO22 080555Z AUTO 00000KT 10SM SCT065 OVC085 23/09 A2979 RMK A01
 
KLHM - Lincoln, California, USA
Distance from station: W 88mi, 141km
Updated: Sun, 27-Sep-2020 7:15pm PDT
Clear
Clear
 Wind from S
Wind: S 3 mph , 6 km/h
Temperature: 86°F , 30°C
Dew Point: 45°F , 7°C
Humidity: 24%
Barometer: 29.81 inHg , 1009.5 hPa
Clouds: Clear
Visibility: 10 miles , 16 km
2020/09/28 02:15 KLHM 280215Z AUTO 17003KT 10SM CLR 30/07 A2981 RMK AO1
KBAB - Beale Afb/Marysv, California, USA
Distance from station: W 91mi, 147km
Updated: Sun, 27-Sep-2020 6:58pm PDT
Clear
Clear
 Wind from ESE
Wind: ESE 8 mph , 13 km/h
Temperature: 86°F , 30°C
Dew Point: 46°F , 8°C
Humidity: 25%
Barometer: 29.80 inHg , 1009.1 hPa
Clouds: Clear
Visibility: 9 miles , 14 km
2020/09/28 01:58 KBAB 280158Z AUTO 11007KT 9SM CLR 30/08 A2980 RMK AO2 SLP093 T02970076 $
 
KMHR - Mather Field, California, USA
Distance from station: WSW 91mi, 147km
Updated: Sun, 27-Sep-2020 6:55pm PDT
Clear
Clear
 Wind from S
Wind: S 5 mph , 7 km/h
Temperature: 86°F , 30°C
Dew Point: 46°F , 8°C
Humidity: 25%
Barometer: 29.80 inHg , 1009.1 hPa
Clouds: Clear
Visibility: 7 miles , 11 km
2020/09/28 01:55 KMHR 280155Z 18004KT 7SM SKC 30/08 A2980
KLOL - Lovelock, Nevada, USA
Distance from station: NE 94mi, 151km
Updated: Sun, 27-Sep-2020 6:53pm PDT
Clear
Clear
 Wind from NNE
Wind: NNE 14 mph , 22 km/h
Temperature: 70°F , 21°C
Dew Point: 27°F , -3°C
Humidity: 20%
Barometer: 30.26 inHg , 1024.7 hPa
Clouds: Clear
Visibility: 10 miles , 16 km
2020/09/28 01:53 KLOL 280153Z AUTO 03012KT 10SM CLR 21/M03 A3026 RMK AO2 SLP228 T02061033
 
KMCC - Mcclellan Afb, California, USA
Distance from station: WSW 94mi, 151km
Updated: Sun, 27-Sep-2020 7:15pm PDT
Clear
Clear
 Wind from SE
Wind: SE 5 mph , 7 km/h
Temperature: 88°F , 31°C
Dew Point: 43°F , 6°C
Humidity: 21%
Barometer: 29.81 inHg , 1009.5 hPa
Clouds: Clear
Visibility: 10 miles , 16 km
2020/09/28 02:15 KMCC 280215Z AUTO 14004KT 10SM CLR 31/06 A2981 RMK AO2
KMYV - Marysville, California, USA
Distance from station: W 99mi, 159km
Updated: Sun, 27-Sep-2020 6:53pm PDT
Clear
Clear
 Wind from N
Wind: N 7 mph , 11 km/h
Temperature: 88°F , 31°C
Dew Point: 43°F , 6°C
Humidity: 21%
Barometer: 29.80 inHg , 1009.1 hPa
Clouds: Clear
Visibility: 10 miles , 16 km
2020/09/28 01:53 KMYV 280153Z AUTO 01006KT 10SM CLR 31/06 A2980 RMK AO2 SLP093 T03110061
 
KSVE - Susanville Muni, California, USA
Distance from station: NNW 102mi, 164km
Updated: Sun, 27-Sep-2020 7:15pm PDT
Clear
Clear
 Wind from E
Wind: E 7 mph , 11 km/h
Temperature: 63°F , 17°C
Dew Point: 23°F , -5°C
Humidity: 22%
Barometer: 30.28 inHg , 1025.4 hPa
Clouds: Clear
Visibility: 10 miles , 16 km
2020/09/28 02:15 KSVE 280215Z AUTO 09006KT 10SM CLR 17/M05 A3028 RMK AO2
KSAC - Sacramento, California, USA
Distance from station: WSW 103mi, 165km
Updated: Sun, 27-Sep-2020 6:53pm PDT
Clear
Clear
 Wind from calm
Wind: Calm
Temperature: 82°F , 28°C
Dew Point: 48°F , 9°C
Humidity: 30%
Barometer: 29.81 inHg , 1009.5 hPa
Clouds: Clear
Visibility: 10 miles , 16 km
2020/09/28 01:53 KSAC 280153Z 00000KT 10SM CLR 28/09 A2981 RMK AO2 SLP094 T02830089
 
KSMF - Sacramento/Metro, California, USA
Distance from station: WSW 104mi, 167km
Updated: Sun, 27-Sep-2020 6:53pm PDT
Clear
Clear
 Wind from NW
Wind: NW 9 mph , 15 km/h
Temperature: 86°F , 30°C
Dew Point: 45°F , 7°C
Humidity: 24%
Barometer: 29.80 inHg , 1009.1 hPa
Clouds: Clear
Visibility: 10 miles , 16 km
2020/09/28 01:53 KSMF 280153Z 32008KT 10SM CLR 30/07 A2980 RMK AO2 SLP090 T03000067
KOVE - Oroville, California, USA
Distance from station: WNW 106mi, 171km
Updated: Sun, 27-Sep-2020 6:53pm PDT
Clear
Clear
 Wind from NNE
Wind: NNE 8 mph , 13 km/h
Temperature: 97°F , 36°C
Dew Point: 36°F , 2°C
Humidity: 12%
Barometer: 29.84 inHg , 1010.5 hPa
Clouds: Clear
Visibility: 9 miles , 14 km
2020/09/28 01:53 KOVE 280153Z AUTO 03007KT 9SM CLR 36/02 A2984 RMK AO2 SLP106 T03560022 $
 
KMMH - Mammoth/June Lak, California, USA
Distance from station: SSE 110mi, 177km
Updated: Sun, 27-Sep-2020 6:57pm PDT
Clear
Clear
 Wind from W
Wind: W 9 mph , 15 km/h
Temperature: 64°F , 18°C
Dew Point: 27°F , -3°C
Humidity: 24%
Barometer: 30.36 inHg , 1028.1 hPa
Clouds: Clear
Visibility: 10 miles , 16 km
2020/09/28 01:57 KMMH 280157Z AUTO 27008KT 10SM CLR 18/M03 A3036 RMK AO2
KSCK - Stockton, California, USA
Distance from station: SW 114mi, 183km
Updated: Sun, 27-Sep-2020 6:55pm PDT
Clear
Clear
 Wind from calm
Wind: Calm
Temperature: 88°F , 31°C
Dew Point: 55°F , 13°C
Humidity: 33%
Barometer: 29.82 inHg , 1009.8 hPa
Clouds: Clear
Visibility: 10 miles , 16 km
2020/09/28 01:55 KSCK 280155Z AUTO 00000KT 10SM CLR 31/13 A2982 RMK AO2 SLP098 T03060128
 
KEDU - Davis, California, USA
Distance from station: WSW 116mi, 187km
Updated: Sun, 27-Sep-2020 7:15pm PDT
Clear
Clear
 Wind from N
Wind: N 3 mph , 6 km/h
Temperature: 90°F , 32°C
Dew Point: 36°F , 2°C
Humidity: 15%
Barometer: 29.82 inHg , 1009.8 hPa
Clouds: Clear
Visibility: 10 miles , 16 km
2020/09/28 02:15 KEDU 280215Z AUTO 35003KT 10SM CLR 32/02 A2982 RMK AO1
KMOD - Modesto, California, USA
Distance from station: SW 119mi, 191km
Updated: Sun, 27-Sep-2020 6:53pm PDT
Few Clouds
Few Clouds
 Wind from NW
Wind: NW 5 mph , 7 km/h
Temperature: 84°F , 29°C
Dew Point: 54°F , 12°C
Humidity: 35%
Barometer: 29.82 inHg , 1009.8 hPa
Clouds: Few Clouds
Visibility: 10 miles , 16 km
Cloud details: Few Clouds 12000 ft
2020/09/28 01:53 KMOD 280153Z 32004KT 10SM FEW120 29/12 A2982 RMK AO2 SLP097 T02940122
 
KMER - Merced/Castle Af, California, USA
Distance from station: SSW 123mi, 198km
Updated: Sun, 27-Sep-2020 6:45pm PDT
Clear
Clear
 Wind from calm
Wind: Calm
Temperature: 82°F , 28°C
Heat Index: 81°F , 27°C
Dew Point: 55°F , 13°C
Humidity: 40%
Barometer: 29.83 inHg , 1010.2 hPa
Clouds: Clear
Visibility: 6 miles , 10 km
2020/09/28 01:45 KMER 280145Z 00000KT 6SM CLR 28/13 A2983 HZ
KCIC - Chico Municipal, California, USA
Distance from station: WNW 124mi, 199km
Updated: Sun, 27-Sep-2020 6:51pm PDT
Mostly cloudy
Mostly cloudy
 Wind from SW
Wind: SW 8 mph , 13 km/h
Temperature: 90°F , 32°C
Dew Point: 39°F , 4°C
Humidity: 17%
Barometer: 29.87 inHg , 1011.5 hPa
Clouds: Mostly cloudy
Visibility: 10 miles , 16 km
Cloud details: Mostly cloudy 8000 ft
2020/09/28 01:51 KCIC 280151Z 23007KT 10SM BKN080 32/04 A2987 RMK FU BKN050
 
KMCE - Merced, California, USA
Distance from station: SSW 128mi, 207km
Updated: Sun, 27-Sep-2020 6:53pm PDT
Clear
Clear
 Wind from WNW
Wind: WNW 3 mph , 6 km/h
Temperature: 84°F , 29°C
Dew Point: 55°F , 13°C
Humidity: 37%
Barometer: 29.82 inHg , 1009.8 hPa
Clouds: Clear
Visibility: 10 miles , 16 km
2020/09/28 01:53 KMCE 280153Z AUTO 30003KT 10SM CLR 29/13 A2982 RMK AO2 SLP097 T02940133 $
KVCB - Vacaville, California, USA
Distance from station: WSW 128mi, 207km
Updated: Sun, 27-Sep-2020 6:53pm PDT
Few Clouds
Few Clouds
 Wind from NE
Wind: NE 8 mph , 13 km/h
Temperature: 90°F , 32°C
Dew Point: 37°F , 3°C
Humidity: 16%
Barometer: 29.83 inHg , 1010.2 hPa
Clouds: Few Clouds
Visibility: 10 miles , 16 km
Cloud details: Few Clouds 11000 ft
2020/09/28 01:53 KVCB 280153Z AUTO 04007KT 10SM FEW110 32/03 A2983 RMK AO2 SLP098 T03170028 $
 
KSUU - Travis Afb/Fairf, California, USA
Distance from station: WSW 130mi, 209km
Updated: Sun, 27-Sep-2020 6:58pm PDT
Clear
Clear
 Wind from E
Wind: E 9 mph , 15 km/h
Temperature: 84°F , 29°C
Dew Point: 43°F , 6°C
Humidity: 23%
Barometer: 29.82 inHg , 1009.8 hPa
Clouds: Clear
Visibility: 10 miles , 16 km
2020/09/28 01:58 KSUU 280158Z AUTO 09008KT 10SM CLR 29/06 A2982 RMK AO2 SLP104 T02940061 $
KBIH - Bishop, California, USA
Distance from station: SE 137mi, 221km
Updated: Sun, 27-Sep-2020 6:56pm PDT
Clear
Clear
 Wind from N
Wind: N 14 mph , 22 km/h, Gust: 26 mph , 43 km/h
Temperature: 79°F , 26°C
Dew Point: 30°F , -1°C
Humidity: 17%
Barometer: 30.12 inHg , 1020 hPa
Clouds: Clear
Visibility: 10 miles , 16 km
2020/09/28 01:56 KBIH 280156Z AUTO 36012G23KT 10SM CLR 26/M01 A3012 RMK AO2 SLP158 T02611006
 
KMAE - Madera, California, USA
Distance from station: S 144mi, 231km
Updated: Sun, 27-Sep-2020 6:53pm PDT
Clear
Clear
 Wind from W
Wind: W 3 mph , 6 km/h
Temperature: 79°F , 26°C
Dew Point: 63°F , 17°C
Humidity: 58%
Barometer: 29.84 inHg , 1010.5 hPa
Clouds: Clear
Visibility: 10 miles , 16 km
2020/09/28 01:53 KMAE 280153Z AUTO 28003KT 10SM CLR 26/17 A2984 RMK AO2 SLP101 T02560172
KCCR - Concord, California, USA
Distance from station: WSW 145mi, 233km
Updated: Sun, 27-Sep-2020 6:53pm PDT
Few Clouds
Few Clouds
 Wind from SE
Wind: SE 3 mph , 6 km/h
Temperature: 88°F , 31°C
Dew Point: 46°F , 8°C
Humidity: 24%
Barometer: 29.82 inHg , 1009.8 hPa
Clouds: Few Clouds
Visibility: 10 miles , 16 km
Cloud details: Few Clouds 12000 ft
2020/09/28 01:53 KCCR 280153Z 13003KT 10SM FEW120 31/08 A2982 RMK AO2 SLP084 T03110078
 
KLVK - Livermore, California, USA
Distance from station: SW 146mi, 236km
Updated: Sun, 27-Sep-2020 6:53pm PDT
Clear
Clear
 Wind from ENE
Wind: ENE 5 mph , 7 km/h
Temperature: 84°F , 29°C
Dew Point: 45°F , 7°C
Humidity: 25%
Barometer: 29.84 inHg , 1010.5 hPa
Clouds: Clear
Visibility: 10 miles , 16 km
2020/09/28 01:53 KLVK 280153Z 07004KT 10SM CLR 29/07 A2984 RMK AO2 SLP100 T02890067
KAPC - Napa, California, USA
Distance from station: WSW 150mi, 241km
Updated: Sun, 27-Sep-2020 6:54pm PDT
Clear
Clear
 Wind from E
Wind: E 5 mph , 7 km/h
Temperature: 91°F , 33°C
Dew Point: 37°F , 3°C
Humidity: 15%
Barometer: 29.81 inHg , 1009.5 hPa
Clouds: Clear
Visibility: 10 miles , 16 km
2020/09/28 01:54 KAPC 280154Z AUTO 09004KT 10SM CLR 33/03 A2981 RMK AO2 SLP085 T03280028
 
KRBL - Red Bluff, California, USA
Distance from station: WNW 155mi, 249km
Updated: Sun, 27-Sep-2020 6:54pm PDT
Clear
Clear
 Wind from N
Wind: N 15 mph , 24 km/h
Temperature: 93°F , 34°C
Dew Point: 30°F , -1°C
Humidity: 11%
Barometer: 29.90 inHg , 1012.5 hPa
Clouds: Clear
Visibility: 10 miles , 16 km
2020/09/28 01:54 KRBL 280154Z AUTO 36013KT 10SM CLR 34/M01 A2990 RMK AO2 SLP121 T03391006
KFAT - Fresno, California, USA
Distance from station: S 156mi, 251km
Updated: Sun, 27-Sep-2020 6:53pm PDT
Mostly cloudy
Mostly cloudy
 Wind from NW
Wind: NW 5 mph , 7 km/h
Temperature: 88°F , 31°C
Dew Point: 54°F , 12°C
Humidity: 31%
Barometer: 29.83 inHg , 1010.2 hPa
Clouds: Mostly cloudy
Visibility: 10 miles , 16 km
Cloud details: Mostly cloudy 13000 ft
2020/09/28 01:53 KFAT 280153Z 31004KT 10SM BKN130 31/12 A2983 RMK AO2 SLP098 FU BKN130 HZ FU DSNT ALQDS T03060122
 
KTPH - Tonopah, Nevada, USA
Distance from station: ESE 158mi, 254km
Updated: Sun, 27-Sep-2020 6:56pm PDT
Clear
Clear
 Wind from N
Wind: N 21 mph , 33 km/h, Gust: 31 mph , 50 km/h
Temperature: 75°F , 24°C
Dew Point: 21°F , -6°C
Humidity: 13%
Barometer: 30.22 inHg , 1023.4 hPa
Clouds: Clear
Visibility: 10 miles , 16 km
2020/09/28 01:56 KTPH 280156Z AUTO 01018G27KT 10SM CLR 24/M06 A3022 RMK AO2 PK WND 36027/0148 SLP178 T02391056
KFCH - Fresno Chandler, California, USA
Distance from station: S 161mi, 258km
Updated: Thu, 14-May-2020 3:35am PDT
NOT Current
Few Clouds
Few Clouds
 Wind from NW
Wind: NW 13 mph , 20 km/h
Temperature: 59°F , 15°C
Dew Point: 48°F , 9°C
Humidity: 68%
Barometer: 30.06 inHg , 1017.9 hPa
Clouds: Few Clouds
Visibility: 10 miles , 16 km
Cloud details: Few Clouds 2900 ft
2020/05/14 10:35 KFCH 141035Z AUTO 32011KT 10SM FEW029 15/09 A3006 RMK A01
 
KHWD - Hayward, California, USA
Distance from station: SW 161mi, 259km
Updated: Sun, 27-Sep-2020 6:54pm PDT
Clear
Clear
 Wind from ENE
Wind: ENE 6 mph , 9 km/h
Temperature: 91°F , 33°C
Dew Point: 45°F , 7°C
Humidity: 20%
Barometer: 29.81 inHg , 1009.5 hPa
Clouds: Clear
Visibility: 10 miles , 16 km
2020/09/28 01:54 KHWD 280154Z 06005KT 10SM CLR 33/07 A2981 RMK AO2 SLP104 T03330067
KOAK - Oakland, California, USA
Distance from station: SW 164mi, 264km
Updated: Sun, 27-Sep-2020 6:53pm PDT
Partly cloudy
Partly cloudy
 Wind from W
Wind: W 5 mph , 7 km/h
Temperature: 84°F , 29°C
Heat Index: 84°F , 29°C
Dew Point: 59°F , 15°C
Humidity: 43%
Barometer: 29.82 inHg , 1009.8 hPa
Clouds: Partly cloudy
Visibility: 10 miles , 16 km
Cloud details: Few Clouds 3000 ft
Partly cloudy 25000 ft
2020/09/28 01:53 KOAK 280153Z 26004KT 10SM FEW030 SCT250 29/15 A2982 RMK AO2 SLP097 FU FEW030 T02890150
 
KWMC - Winnemucca, Nevada, USA
Distance from station: NE 164mi, 264km
Updated: Sun, 27-Sep-2020 6:56pm PDT
Clear
Clear
 Wind from N
Wind: N 8 mph , 13 km/h
Temperature: 63°F , 17°C
Dew Point: 25°F , -4°C
Humidity: 24%
Barometer: 30.32 inHg , 1026.8 hPa
Clouds: Clear
Visibility: 10 miles , 16 km
2020/09/28 01:56 KWMC 280156Z AUTO 36007KT 10SM CLR 17/M04 A3032 RMK AO2 SLP250 T01721039 $
KDVO - Novato/Gnoss Fld, California, USA
Distance from station: WSW 165mi, 265km
Updated: Sun, 27-Sep-2020 6:55pm PDT
Clear
Clear
 Wind from calm
Wind: Calm
Temperature: 82°F , 28°C
Dew Point: 48°F , 9°C
Humidity: 30%
Barometer: 29.82 inHg , 1009.8 hPa
Clouds: Clear
Visibility: 10 miles , 16 km
2020/09/28 01:55 KDVO 280155Z AUTO 00000KT 10SM CLR 28/09 A2982 RMK AO2
 
KO69 - Petaluma, California, USA
Distance from station: WSW 165mi, 265km
Updated: Sun, 27-Sep-2020 7:15pm PDT
Few Clouds
Few Clouds
 Wind from calm
Wind: Calm
Temperature: 79°F , 26°C
Dew Point: 45°F , 7°C
Humidity: 30%
Barometer: 29.83 inHg , 1010.2 hPa
Clouds: Few Clouds
Visibility: 10 miles , 16 km
Cloud details: Few Clouds 5000 ft
Few Clouds 8000 ft
2020/09/28 02:15 KO69 280215Z AUTO 00000KT 10SM FEW050 FEW080 26/07 A2983 RMK A01
KRHV - San Jose/Reid, California, USA
Distance from station: SW 165mi, 265km
Updated: Sun, 27-Sep-2020 6:50pm PDT
Clear
Clear
 Wind from varies
Wind: varies 5 mph , 7 km/h
Temperature: 88°F , 31°C
Dew Point: 52°F , 11°C
Humidity: 29%
Barometer: 29.81 inHg , 1009.5 hPa
Clouds: Clear
Visibility: 10 miles , 16 km
2020/09/28 01:50 KRHV 280150Z VRB04KT 10SM SKC 31/11 A2981
 
KSJC - San Jose, California, USA
Distance from station: SW 166mi, 267km
Updated: Sun, 27-Sep-2020 6:53pm PDT
Partly cloudy
Partly cloudy
 Wind from calm
Wind: Calm
Temperature: 88°F , 31°C
Dew Point: 52°F , 11°C
Humidity: 29%
Barometer: 29.80 inHg , 1009.1 hPa
Clouds: Partly cloudy
Visibility: 10 miles , 16 km
Cloud details: Few Clouds 3000 ft
Partly cloudy 5000 ft
Partly cloudy 10000 ft
2020/09/28 01:53 KSJC 280153Z 00000KT 10SM FEW030 SCT050 SCT100 31/11 A2980 RMK AO2 SLP091 HZ FEW030 HZ SCT050 T03060106 $
KE16 - San Martin, California, USA
Distance from station: SW 169mi, 273km
Updated: Sun, 27-Sep-2020 7:10pm PDT

 Wind from N
Wind: N 3 mph , 6 km/h
Temperature: 86°F , 30°C
Dew Point: 48°F , 9°C
Humidity: 27%
Barometer: 29.84 inHg , 1010.5 hPa
Visibility: 10 miles , 16 km
2020/09/28 02:10 KE16 280210Z AUTO 35003KT 10SM 30/09 A2984 RMK AO2 PWINO PNO
 
KPAO - Palo Alto, California, USA
Distance from station: SW 169mi, 273km
Updated: Sun, 27-Sep-2020 3:47pm PDT
NOT Current
Clear
Clear
 Wind from NNW
Wind: NNW 10 mph , 17 km/h
Temperature: 91°F , 33°C
Dew Point: 48°F , 9°C
Humidity: 23%
Barometer: 29.82 inHg , 1009.8 hPa
Clouds: Clear
Visibility: 10 miles , 16 km
2020/09/27 22:47 KPAO 272247Z 34009KT 10SM SKC 33/09 A2982
KNUQ - Moffett Nas/Mtn, California, USA
Distance from station: SW 170mi, 273km
Updated: Sun, 27-Sep-2020 6:55am PDT
NOT Current
Mostly cloudy
Mostly cloudy
 Wind from calm
Wind: Calm
Temperature: 61°F , 16°C
Dew Point: 55°F , 13°C
Humidity: 83%
Barometer: 29.90 inHg , 1012.5 hPa
Clouds: Mostly cloudy
Visibility: 10 miles , 16 km
Cloud details: Partly cloudy 1900 ft
Mostly cloudy 2400 ft
Mostly cloudy 3100 ft
2020/09/27 13:55 KNUQ 271355Z AUTO 00000KT 10SM SCT019 BKN024 BKN031 16/13 A2990 RMK AO2
 
KRDD - Redding, California, USA
Distance from station: NW 171mi, 275km
Updated: Sun, 27-Sep-2020 6:53pm PDT
Smoke, Clear
Smoke, Clear
 Wind from N
Wind: N 16 mph , 26 km/h
Temperature: 93°F , 34°C
Dew Point: 34°F , 1°C
Humidity: 12%
Barometer: 29.93 inHg , 1013.5 hPa
Summary: Smoke
Clouds: Clear
Visibility: 10 miles , 16 km
2020/09/28 01:53 KRDD 280153Z 01014KT 10SM FU CLR 34/01 A2993 RMK AO2 PK WND 02028/0054 SLP129 T03390006
KSTS - Santa Rosa, California, USA
Distance from station: WSW 171mi, 275km
Updated: Sun, 27-Sep-2020 6:53pm PDT
Smoke, Clear
Smoke, Clear
 Wind from SE
Wind: SE 7 mph , 11 km/h
Temperature: 84°F , 29°C
Dew Point: 48°F , 9°C
Humidity: 29%
Barometer: 29.81 inHg , 1009.5 hPa
Summary: Smoke
Clouds: Clear
Visibility: 8 miles , 13 km
2020/09/28 01:53 KSTS 280153Z AUTO 14006KT 8SM FU CLR 29/09 A2981 RMK AO2 SLP089 T02940094
 
KSQL - San Carlos Airpo, California, USA
Distance from station: SW 173mi, 278km
Updated: Sun, 27-Sep-2020 6:57pm PDT
Clear
Clear
 Wind from WNW
Wind: WNW 6 mph , 9 km/h
Temperature: 86°F , 30°C
Dew Point: 46°F , 8°C
Humidity: 25%
Barometer: 29.83 inHg , 1010.2 hPa
Clouds: Clear
Visibility: 10 miles , 16 km
2020/09/28 01:57 KSQL 280157Z 29005KT 10SM SKC 30/08 A2983
KCVH - Hollister Muni, California, USA
Distance from station: SSW 174mi, 280km
Updated: Fri, 25-Sep-2020 11:35am PDT
NOT Current
Clear
Clear
 Wind from calm
Wind: Calm
Temperature: 72°F , 22°C
Dew Point: 50°F , 10°C
Humidity: 47%
Barometer: 30.06 inHg , 1017.9 hPa
Clouds: Clear
Visibility: 9 miles , 14 km
2020/09/25 18:35 KCVH 251835Z AUTO 00000KT 9SM CLR 22/10 A3006 RMK A01
 
KSFO - San Francisco, California, USA
Distance from station: SW 174mi, 280km
Updated: Sun, 27-Sep-2020 6:56pm PDT
Few Clouds
Few Clouds
 Wind from W
Wind: W 10 mph , 17 km/h
Temperature: 82°F , 28°C
Dew Point: 45°F , 7°C
Humidity: 26%
Barometer: 29.82 inHg , 1009.8 hPa
Clouds: Few Clouds
Visibility: 9 miles , 14 km
Cloud details: Few Clouds 20000 ft
2020/09/28 01:56 KSFO 280156Z 28009KT 9SM FEW200 28/07 A2982 RMK AO2 SLP096 T02780067
KAAT - Alturas, California, USA
Distance from station: NNW 175mi, 281km
Updated: Sun, 27-Sep-2020 6:55pm PDT
Clear
Clear
 Wind from NNE
Wind: NNE 9 mph , 15 km/h
Temperature: 64°F , 18°C
Dew Point: 25°F , -4°C
Humidity: 22%
Barometer: 30.31 inHg , 1026.4 hPa
Clouds: Clear
Visibility: 10 miles , 16 km
2020/09/28 01:55 KAAT 280155Z AUTO 02008KT 10SM CLR 18/M04 A3031 RMK AO2 SLP251 T01831044 $
 
KBAM - Battle Mtn (vor), Nevada, USA
Distance from station: NE 182mi, 294km
Updated: Sun, 27-Sep-2020 7:15pm PDT
Clear
Clear
 Wind from ENE
Wind: ENE 3 mph , 6 km/h
Temperature: 61°F , 16°C
Dew Point: 25°F , -4°C
Humidity: 25%
Barometer: 30.33 inHg , 1027.1 hPa
Clouds: Clear
Visibility: 10 miles , 16 km
2020/09/28 02:15 KBAM 280215Z AUTO 07003KT 10SM CLR 16/M04 A3033 RMK AO1
KHAF - Half Moon Bay, California, USA
Distance from station: SW 184mi, 296km
Updated: Sun, 27-Sep-2020 7:15pm PDT
Clear
Clear
 Wind from NNW
Wind: NNW 7 mph , 11 km/h
Temperature: 77°F , 25°C
Dew Point: 45°F , 7°C
Humidity: 32%
Barometer: 29.82 inHg , 1009.8 hPa
Clouds: Clear
Visibility: 9 miles , 14 km
2020/09/28 02:15 KHAF 280215Z AUTO 34006KT 9SM CLR 25/07 A2982 RMK AO2
 
KWVI - Watsonville, California, USA
Distance from station: SW 184mi, 296km
Updated: Sun, 27-Sep-2020 6:53pm PDT
Clear
Clear
 Wind from SSW
Wind: SSW 5 mph , 7 km/h
Temperature: 66°F , 19°C
Dew Point: 57°F , 14°C
Humidity: 73%
Barometer: 29.83 inHg , 1010.2 hPa
Clouds: Clear
Visibility: 10 miles , 16 km
2020/09/28 01:53 KWVI 280153Z AUTO 21004KT 10SM CLR 19/14 A2983 RMK AO2 SLP100 T01940139
KUKI - Ukiah, California, USA
Distance from station: W 187mi, 300km
Updated: Sun, 27-Sep-2020 6:56pm PDT
Clear
Clear
 Wind from W
Wind: W 6 mph , 9 km/h
Temperature: 88°F , 31°C
Dew Point: 36°F , 2°C
Humidity: 16%
Barometer: 29.85 inHg , 1010.8 hPa
Clouds: Clear
Visibility: 10 miles , 16 km
2020/09/28 01:56 KUKI 280156Z AUTO 28005KT 10SM CLR 31/02 A2985 RMK AO2 SLP100 T03060022
 
KHJO - Hanford, California, USA
Distance from station: S 188mi, 303km
Updated: Sun, 27-Sep-2020 6:53pm PDT
Clear
Clear
 Wind from NW
Wind: NW 3 mph , 6 km/h
Temperature: 82°F , 28°C
Heat Index: 82°F , 28°C
Dew Point: 61°F , 16°C
Humidity: 48%
Barometer: 29.83 inHg , 1010.2 hPa
Clouds: Clear
Visibility: 9 miles , 14 km
2020/09/28 01:53 KHJO 280153Z AUTO 32003KT 9SM CLR 28/16 A2983 RMK AO2 SLP102 T02780156
KNLC - Lemoore Nas/Reev, California, USA
Distance from station: S 188mi, 303km
Updated: Sun, 27-Sep-2020 6:56pm PDT
Clear
Clear
 Wind from N
Wind: N 6 mph , 9 km/h
Temperature: 81°F , 27°C
Dew Point: 52°F , 11°C
Humidity: 37%
Barometer: 29.83 inHg , 1010.2 hPa
Clouds: Clear
Visibility: 10 miles , 16 km
2020/09/28 01:56 KNLC 280156Z AUTO 36005KT 10SM CLR 27/11 A2983 RMK AO2 SLP100 T02720111
 
KVIS - Visalia Muni, California, USA
Distance from station: S 189mi, 304km
Updated: Sun, 27-Sep-2020 6:56pm PDT
Clear
Clear
 Wind from NW
Wind: NW 5 mph , 7 km/h
Temperature: 82°F , 28°C
Heat Index: 82°F , 28°C
Dew Point: 57°F , 14°C
Humidity: 42%
Barometer: 29.83 inHg , 1010.2 hPa
Clouds: Clear
Visibility: 10 miles , 16 km
2020/09/28 01:56 KVIS 280156Z AUTO 31004KT 10SM CLR 28/14 A2983 RMK AO2 SLP107 T02830144
KSNS - Salinas, California, USA
Distance from station: SSW 193mi, 311km
Updated: Sun, 27-Sep-2020 6:53pm PDT
Clear
Clear
 Wind from NW
Wind: NW 10 mph , 17 km/h
Temperature: 73°F , 23°C
Dew Point: 55°F , 13°C
Humidity: 53%
Barometer: 29.82 inHg , 1009.8 hPa
Clouds: Clear
Visibility: 10 miles , 16 km
2020/09/28 01:53 KSNS 280153Z AUTO 32009KT 10SM CLR 23/13 A2982 RMK AO2 SLP105 T02330128
 
K05U - Eureka, Nevada, USA
Distance from station: ENE 203mi, 326km
Updated: Sun, 27-Sep-2020 7:15pm PDT
Clear
Clear
 Wind from calm
Wind: Calm
Temperature: 52°F , 11°C
Dew Point: 19°F , -7°C
Humidity: 28%
Barometer: 30.36 inHg , 1028.1 hPa
Clouds: Clear
Visibility: 10 miles , 16 km
2020/09/28 02:15 K05U 280215Z AUTO 00000KT 10SM CLR 11/M07 A3036 RMK A01
KP68 - Eureka, Nevada, USA
Distance from station: ENE 203mi, 326km
Updated: Sun, 27-Sep-2020 6:53pm PDT

 Wind from N
Wind: N 8 mph , 13 km/h
Temperature: 55°F , 13°C
Dew Point: 25°F , -4°C
Humidity: 31%
Barometer: 30.33 inHg , 1027.1 hPa
2020/09/28 01:53 KP68 280153Z AUTO 01007KT 13/M04 A3033 RMK AO1 SLP243 T01331044
 
KMRY - Monterey, California, USA
Distance from station: SW 206mi, 331km
Updated: Sun, 27-Sep-2020 6:54pm PDT
Clear
Clear
 Wind from NE
Wind: NE 3 mph , 6 km/h
Barometer: 29.83 inHg , 1010.2 hPa
Clouds: Clear
Visibility: 10 miles , 16 km
2020/09/28 01:54 KMRY 280154Z AUTO 05003KT 10SM CLR A2983 RMK AO2 SLPNO $
KO54 - Weaverville, California, USA
Distance from station: NW 207mi, 332km
Updated: Wed, 12-Aug-2020 11:15am PDT
NOT Current
Clear
Clear
 Wind from S
Wind: S 3 mph , 6 km/h
Temperature: 77°F , 25°C
Dew Point: 41°F , 5°C
Humidity: 28%
Barometer: 30.01 inHg , 1016.3 hPa
Clouds: Clear
Visibility: 10 miles , 16 km
2020/08/12 18:15 KO54 121815Z AUTO 17003KT 10SM CLR 25/05 A3001 RMK AO1
 
KO86 - Trinity Center, California, USA
Distance from station: NW 207mi, 333km
Updated: Fri, 25-Sep-2020 1:50am PDT
NOT Current
Mostly cloudy
Mostly cloudy
 Wind from W
Wind: W 5 mph , 7 km/h
Temperature: 50°F , 10°C
Wind Chill: 48°F , 9°C
Dew Point: 41°F , 5°C
Humidity: 71%
Barometer: 30.06 inHg , 1017.9 hPa
Clouds: Mostly cloudy
Visibility: 10 miles , 16 km
Cloud details: Mostly cloudy 4000 ft
2020/09/25 08:50 KO86 250850Z AUTO 27004KT 10SM BKN040 10/05 A3006 RMK AO1
KMHS - Mount Shasta, California, USA
Distance from station: NW 209mi, 336km
Updated: Sun, 27-Sep-2020 6:56pm PDT
Clear
Clear
 Wind from calm
Wind: Calm
Temperature: 70°F , 21°C
Dew Point: 36°F , 2°C
Humidity: 29%
Barometer: 30.21 inHg , 1023 hPa
Clouds: Clear
Visibility: 10 miles , 16 km
2020/09/28 01:56 KMHS 280156Z AUTO 00000KT 10SM CLR 21/02 A3021 RMK AO2 SLP230 T02110017
 
KPTV - Porterville, California, USA
Distance from station: S 212mi, 341km
Updated: Sun, 27-Sep-2020 6:56pm PDT
Clear
Clear
 Wind from NNW
Wind: NNW 3 mph , 6 km/h
Temperature: 82°F , 28°C
Heat Index: 82°F , 28°C
Dew Point: 57°F , 14°C
Humidity: 42%
Barometer: 29.84 inHg , 1010.5 hPa
Clouds: Clear
Visibility: 10 miles , 16 km
2020/09/28 01:56 KPTV 280156Z AUTO 33003KT 10SM CLR 28/14 A2984 RMK AO2 SLP102 T02830144
KLKV - Lakeview, Oregon, USA
Distance from station: N 219mi, 353km
Updated: Sun, 27-Sep-2020 6:53pm PDT
Clear
Clear
 Wind from N
Wind: N 9 mph , 15 km/h
Temperature: 57°F , 14°C
Dew Point: 28°F , -2°C
Humidity: 33%
Barometer: 30.37 inHg , 1028.4 hPa
Clouds: Clear
Visibility: 10 miles , 16 km
2020/09/28 01:53 KLKV 280153Z AUTO 01008KT 10SM CLR 14/M02 A3037 RMK AO2 SLP280 T01441022 $
 
KSIY - Montague/Siskiyo, California, USA
Distance from station: NW 237mi, 382km
Updated: Sun, 27-Sep-2020 6:53pm PDT
Clear
Clear
 Wind from NE
Wind: NE 10 mph , 17 km/h
Temperature: 81°F , 27°C
Dew Point: 30°F , -1°C
Humidity: 16%
Barometer: 30.19 inHg , 1022.4 hPa
Clouds: Clear
Visibility: 10 miles , 16 km
2020/09/28 01:53 KSIY 280153Z AUTO 04009KT 10SM CLR 27/M01 A3019 RMK AO2 SLP218 T02671006
KPRB - Paso Robles, California, USA
Distance from station: SSW 238mi, 383km
Updated: Sun, 27-Sep-2020 6:53pm PDT
Clear
Clear
 Wind from ESE
Wind: ESE 8 mph , 13 km/h
Temperature: 88°F , 31°C
Dew Point: 48°F , 9°C
Humidity: 25%
Barometer: 29.82 inHg , 1009.8 hPa
Clouds: Clear
Visibility: 10 miles , 16 km
2020/09/28 01:53 KPRB 280153Z AUTO 11007KT 10SM CLR 31/09 A2982 RMK AO2 SLP092 T03110089
 
KLMT - Klamath Falls, Oregon, USA
Distance from station: NNW 239mi, 385km
Updated: Sun, 27-Sep-2020 6:53pm PDT
Clear
Clear
 Wind from ENE
Wind: ENE 10 mph , 17 km/h
Temperature: 64°F , 18°C
Dew Point: 32°F , 0°C
Humidity: 30%
Barometer: 30.31 inHg , 1026.4 hPa
Clouds: Clear
Visibility: 10 miles , 16 km
2020/09/28 01:53 KLMT 280153Z 06009KT 10SM CLR 18/00 A3031 RMK AO2 SLP252 T01780000
KEKO - Elko, Nevada, USA
Distance from station: ENE 242mi, 390km
Updated: Sun, 27-Sep-2020 6:56pm PDT
Clear
Clear
 Wind from NE
Wind: NE 9 mph , 15 km/h
Temperature: 64°F , 18°C
Dew Point: 21°F , -6°C
Humidity: 19%
Barometer: 30.31 inHg , 1026.4 hPa
Clouds: Clear
Visibility: 10 miles , 16 km
2020/09/28 01:56 KEKO 280156Z AUTO 04008KT 10SM CLR 18/M06 A3031 RMK AO2 SLP250 T01781061
 
KBFL - Bakersfield, California, USA
Distance from station: S 252mi, 405km
Updated: Sun, 27-Sep-2020 6:54pm PDT
Clear
Clear
 Wind from NW
Wind: NW 7 mph , 11 km/h
Temperature: 84°F , 29°C
Dew Point: 55°F , 13°C
Humidity: 37%
Barometer: 29.83 inHg , 1010.2 hPa
Clouds: Clear
Visibility: 9 miles , 14 km
2020/09/28 01:54 KBFL 280154Z 31006KT 9SM CLR 29/13 A2983 RMK AO2 SLP096 T02940128
KFOT - Fortuna, California, USA
Distance from station: WNW 256mi, 413km
Updated: Sun, 27-Sep-2020 7:15pm PDT
Few Clouds
Few Clouds
 Wind from NNE
Wind: NNE 3 mph , 6 km/h
Temperature: 63°F , 17°C
Dew Point: 55°F , 13°C
Humidity: 77%
Barometer: 29.96 inHg , 1014.6 hPa
Clouds: Few Clouds
Visibility: 9 miles , 14 km
Cloud details: Few Clouds 9500 ft
Few Clouds 11000 ft
2020/09/28 02:15 KFOT 280215Z AUTO 02003KT 9SM FEW095 FEW110 17/13 A2996 RMK AO1
 
KNID - China Lake (naf), California, USA
Distance from station: SSE 259mi, 417km
Updated: Sun, 27-Sep-2020 6:56pm PDT

 
Barometer: 29.92 inHg , 1013.2 hPa
2020/09/28 01:56 KNID 280156Z AUTO A2992 RMK AO2 SLPNO PWINO $
KDRA - Desert R/Mercury, Nevada, USA
Distance from station: SE 262mi, 421km
Updated: Sun, 27-Sep-2020 6:53pm PDT
Clear
Clear
 Wind from ENE
Wind: ENE 5 mph , 7 km/h
Temperature: 86°F , 30°C
Dew Point: 28°F , -2°C
Humidity: 12%
Barometer: 30.01 inHg , 1016.3 hPa
Clouds: Clear
Visibility: 10 miles , 16 km
2020/09/28 01:53 KDRA 280153Z AUTO 06004KT 10SM CLR 30/M02 A3001 RMK AO2 SLP117 T03001017 $
 
KELY - Ely, Nevada, USA
Distance from station: E 262mi, 421km
Updated: Sun, 27-Sep-2020 6:53pm PDT
Clear
Clear
 Wind from N
Wind: N 16 mph , 26 km/h
Temperature: 61°F , 16°C
Dew Point: 21°F , -6°C
Humidity: 22%
Barometer: 30.32 inHg , 1026.8 hPa
Clouds: Clear
Visibility: 10 miles , 16 km
2020/09/28 01:53 KELY 280153Z AUTO 36014KT 10SM CLR 16/M06 A3032 RMK AO2 SLP212 T01611056
KREO - Rome, Oregon, USA
Distance from station: NNE 263mi, 424km
Updated: Sun, 27-Sep-2020 6:52pm PDT

 Wind from ENE
Wind: ENE 7 mph , 11 km/h
Temperature: 61°F , 16°C
Dew Point: 30°F , -1°C
Humidity: 31%
Barometer: 30.37 inHg , 1028.4 hPa
2020/09/28 01:52 KREO 280152Z AUTO 07006KT 16/M01 A3037 RMK AO1 SLP278 T01611011
 
KACV - Arcata/Eureka, California, USA
Distance from station: WNW 268mi, 431km
Updated: Sun, 27-Sep-2020 6:53pm PDT
Overcast
Overcast
 Wind from S
Wind: S 10 mph , 17 km/h
Temperature: 68°F , 20°C
Dew Point: 55°F , 13°C
Humidity: 64%
Barometer: 29.94 inHg , 1013.9 hPa
Clouds: Overcast
Visibility: 10 miles , 16 km
Cloud details: Overcast 6500 ft
2020/09/28 01:53 KACV 280153Z AUTO 18009KT 10SM OVC065 20/13 A2994 RMK AO2 SLP141 T02000133
KSBP - San Luis Obispo, California, USA
Distance from station: S 268mi, 431km
Updated: Sun, 27-Sep-2020 4:56pm PDT
NOT Current
Clear
Clear
 Wind from SSW
Wind: SSW 6 mph , 9 km/h
Temperature: 73°F , 23°C
Dew Point: 61°F , 16°C
Humidity: 65%
Barometer: 29.84 inHg , 1010.5 hPa
Clouds: Clear
Visibility: 10 miles , 16 km
2020/09/27 23:56 KSBP 272356Z 20005KT 10SM SKC 23/16 A2984
 
KINS - Indian Springs, Nevada, USA
Distance from station: SE 279mi, 449km
Updated: Sun, 27-Sep-2020 6:58pm PDT
Clear
Clear
 Wind from E
Wind: E 9 mph , 15 km/h
Temperature: 86°F , 30°C
Dew Point: 23°F , -5°C
Humidity: 10%
Barometer: 30.00 inHg , 1015.9 hPa
Clouds: Clear
Visibility: 10 miles , 16 km
2020/09/28 01:58 KINS 280158Z AUTO 09008KT 10SM CLR 30/M05 A3000 RMK AO2 SLP116 T03021048 $
KTSP - Tehachapi, California, USA
Distance from station: SSE 279mi, 449km
Updated: Sun, 27-Sep-2020 6:55pm PDT
Clear
Clear
 Wind from E
Wind: E 8 mph , 13 km/h, Gust: 17 mph , 28 km/h
Temperature: 81°F , 27°C
Dew Point: 32°F , 0°C
Humidity: 17%
Barometer: 30.07 inHg , 1018.3 hPa
Clouds: Clear
Visibility: 10 miles , 16 km
2020/09/28 01:55 KTSP 280155Z AUTO 10007G15KT 10SM CLR 27/00 A3007 RMK AO2
 
KMFR - Medford, Oregon, USA
Distance from station: NW 284mi, 457km
Updated: Sun, 27-Sep-2020 6:53pm PDT
Clear
Clear
 Wind from NE
Wind: NE 5 mph , 7 km/h
Temperature: 81°F , 27°C
Dew Point: 43°F , 6°C
Humidity: 26%
Barometer: 30.14 inHg , 1020.7 hPa
Clouds: Clear
Visibility: 10 miles , 16 km
2020/09/28 01:53 KMFR 280153Z 05004KT 10SM CLR 27/06 A3014 RMK AO2 SLP200 T02670061
KMHV - Mojave, California, USA
Distance from station: SSE 288mi, 463km
Updated: Sun, 27-Sep-2020 7:00pm PDT
Clear
Clear
 Wind from E
Wind: E 8 mph , 13 km/h
Temperature: 86°F , 30°C
Dew Point: 36°F , 2°C
Humidity: 17%
Barometer: 29.97 inHg , 1014.9 hPa
Clouds: Clear
Visibility: 10 miles , 16 km
2020/09/28 02:00 KMHV 280200Z AUTO 08007KT 10SM CLR 30/02 A2997 RMK A01
 
KSMX - Santa Maria, California, USA
Distance from station: S 289mi, 465km
Updated: Sun, 27-Sep-2020 6:51pm PDT
Haze, Overcast
Haze, Overcast
 Wind from NW
Wind: NW 6 mph , 9 km/h
Temperature: 64°F , 18°C
Dew Point: 59°F , 15°C
Humidity: 83%
Barometer: 29.86 inHg , 1011.2 hPa
Summary: Haze
Clouds: Overcast
Visibility: 4 miles , 6 km
Cloud details: Mostly cloudy 600 ft
Overcast 1200 ft
2020/09/28 01:51 KSMX 280151Z 32005KT 4SM HZ BKN006 OVC012 18/15 A2986 RMK AO2 SLP111 T01780150
K9L2 - Edwards N-Aux, California, USA
Distance from station: SSE 299mi, 482km
Updated: Sun, 27-Sep-2020 6:58pm PDT
Clear
Clear
 Wind from NE
Wind: NE 9 mph , 15 km/h
Temperature: 86°F , 30°C
Dew Point: 32°F , 0°C
Humidity: 14%
Barometer: 29.92 inHg , 1013.2 hPa
Clouds: Clear
Visibility: 7 miles , 11 km
2020/09/28 01:58 K9L2 280158Z AUTO 05008KT 7SM CLR 30/00 A2992 RMK AO2 SLP113 T03031001 $
Honor Flight NV - Honoring all of our Veterans CoCoRaHS (Community Collaborative Rain, Hail and Snow Network) Station Number: NV-DG-2 Live Lightning Map - USA Reno Skywarn Spotter ID: DO21 AlertID Southwestern Weather Network Carson Valley Community Food Closet - providing for the needs of our community



Do you have a Teacher in the family or are a teacher yourself?
Check out this new website for the Teacher Community.
(Click on the logo below)
Teacher 
		  Times Two Designs - providing  teacher tees & accessories for the teaching community